Hartsfield Jackson Atlanta International Airport
KATL : now visible

Airfield :











YOU CAN JOIN US ON...

 
LOGIN :

Register | Disclaimer

   EN    FR    IT 

 









Legend :    VFR   Marginal VFR   IFR   Intensive IFR   Very Intensive IFR
Visi :
Ceiling :
>= 8 km
>= 3000ft
5 to 8 km
1000 to 3000 ft
1500m to 5 km
500 to 1000 ft
800 to 1500m
200 to 500 ft
< 800m
< 200 ft
Symbols :   Thunderstorms  Fog  Heavy snow  Heavy precipitations  Wind > 20 kt






- Airport Elevation : 1026 ft
- IATA code : ATL


KATL - Hartsfield Jackson Atlanta International

CURRENT METAR :
  • 291352Z 07007KT 10SM BKN100 BKN200 BKN250 07/01 A3004 RMK AO2 SLP174 T00720006

EXPIRED METARs :
  • 291252Z 09004KT 10SM SCT085 SCT110 BKN200 BKN250 07/01 A3003 RMK AO2 SLP173 VIRGA NE-SE-SW T00670006
  • 291152Z 07003KT 10SM BKN110 07/01 A3001 RMK AO2 SLP163 T00670006 10083 20056 51001

TAF KATL
Valid from the 29 at 14:00 until the 30 at 18:00 UTC


291343Z 2914/3018 07005KT P6SM BKN100
FM291500 07005KT P6SM VCSH SCT050 OVC090
FM292000 07005KT P6SM VCSH OVC050
FM300400 03004KT P6SM FEW070
FM301100 04005KT P6SM SCT250



MET'MAP, your aeronautical weather chart ! - Copyright ORBIFLY December 2007 - Disclaimer

ORBIFLY MET'MAP TEAM :

Programming & Development : Alexandra Zaïnal
Concept & original design : Baudouin d'Aumeries
Assistance for programming : Marc-Olivier Méhu
Technical & hardware support : Manuel Goepfert

Contact : metmap@orbifly.com




SOURCES & CREDITS :

   NOAA       Earth
Advisory